ENBR

Bergen , Flesland Airport

Bergen, Norway
METAR ENBR 221750Z 15012KT 9000 RA FEW009 SCT015 BKN020 09/09 Q1005 TEMPO 16015G25KT 4000 SHRA SCT008 BKN012 RMK WIND 1200FT 14022KT
Observed Flight Rules
Apr-22 @ 17:50 UTC (19 minutes ago) Marginal Visual Flight Rules
Wind Visibility Clouds Conditions
150° at 12 knots 8,996 meters
  • Few at 900' AGL
  • Scattered at 1,500' AGL
  • Broken at 2,000' AGL
  • Rain
Temperatures Readings
Current 9°C / 48°F
Dewpoint 9°C / 48°F
Humidity 100%
Altimeter 29.68" Hg
Pressure 1005 hPa
Elevation 50
METAR ENBR 221750Z 15012KT 9000 RA FEW009 SCT015 BKN020 09/09 Q1005 TEMPO 16015G25KT 4000 SHRA SCT008 BKN012 RMK WIND 1200FT 14022KT
Observed Flight Rules
Apr-22 @ 17:50 UTC
(19 minutes ago)
MVFR
Wind Visibility
150° at 12 knots 8,996 meters
Clouds
  • Few at 900' AGL
  • Scattered at 1,500' AGL
  • Broken at 2,000' AGL
Conditions
  • Rain
Temperature Dewpoint
9°C / 48°F 9°C / 48°F
Humidity Altimeter Pressure
100% 29.68" Hg 1005 hPa